Time;durP1;ratioP1;P1;durP2;ratioP2;P2;SDS_P1;SDS_P2;PMS_P1;PMS_P2;Temp;Humidity;BMP_temperature;BMP_pressure;BME280_temperature;BME280_humidity;BME280_pressure;Samples;Min_cycle;Max_cycle;Signal;HPM_P1;HPM_P2
2021/03/21 00:01:41;;;;;;;8.98;7.05;;;11.30;67.10;;;;;;4988366;28;20070;-61
2021/03/21 00:04:08;;;;;;;8.55;7.45;;;11.20;66.90;;;;;;4987955;28;20073;-63
2021/03/21 00:06:34;;;;;;;8.07;7.28;;;11.20;66.90;;;;;;4988330;28;20106;-63
2021/03/21 00:09:00;;;;;;;8.30;7.50;;;11.30;67.10;;;;;;4988567;28;20054;-63
2021/03/21 00:11:26;;;;;;;8.93;8.02;;;11.20;66.90;;;;;;4988784;28;20080;-64
2021/03/21 00:13:53;;;;;;;9.30;7.63;;;11.30;67.00;;;;;;4987946;28;20042;-64
2021/03/21 00:16:19;;;;;;;8.75;7.85;;;11.30;67.00;;;;;;4988315;28;20110;-64
2021/03/21 00:18:46;;;;;;;7.65;6.85;;;11.30;67.00;;;;;;4986801;28;20036;-63
2021/03/21 00:21:13;;;;;;;7.97;7.18;;;11.30;67.00;;;;;;4987752;28;20489;-63
2021/03/21 00:23:40;;;;;;;8.52;7.55;;;11.30;67.00;;;;;;4988156;28;20040;-63
2021/03/21 00:26:07;;;;;;;7.18;6.47;;;11.30;67.00;;;;;;4987091;28;20085;-64
2021/03/21 00:28:35;;;;;;;8.55;7.53;;;11.30;67.00;;;;;;4987952;28;20129;-63
2021/03/21 00:31:05;;;;;;;7.63;6.82;;;11.30;67.00;;;;;;4988041;28;20085;-63
2021/03/21 00:33:33;;;;;;;9.07;7.28;;;11.30;67.00;;;;;;4988100;28;20475;-63
2021/03/21 00:36:00;;;;;;;7.65;6.65;;;11.30;67.00;;;;;;4988149;28;20294;-62
2021/03/21 00:38:31;;;;;;;8.73;6.80;;;11.30;67.00;;;;;;4987626;28;20066;-63
2021/03/21 00:40:58;;;;;;;7.88;6.85;;;11.30;67.00;;;;;;4988346;28;20060;-62
2021/03/21 00:43:24;;;;;;;7.57;6.82;;;11.30;67.00;;;;;;4988154;28;20046;-63
2021/03/21 00:45:51;;;;;;;7.75;6.97;;;11.30;67.00;;;;;;4987115;28;20040;-62
2021/03/21 00:48:20;;;;;;;6.97;6.28;;;11.30;67.00;;;;;;4987444;28;20034;-64
2021/03/21 00:50:46;;;;;;;6.72;6.10;;;11.20;66.90;;;;;;4987922;28;20037;-61
2021/03/21 00:53:13;;;;;;;7.18;6.43;;;11.30;67.00;;;;;;4987885;28;20034;-62
2021/03/21 00:55:39;;;;;;;8.15;7.20;;;11.20;66.90;;;;;;4987754;28;20038;-62
2021/03/21 00:58:05;;;;;;;7.75;6.25;;;11.30;67.00;;;;;;4987730;28;20045;-62
2021/03/21 01:00:36;;;;;;;7.80;6.63;;;11.30;67.00;;;;;;4968287;28;20037;-62
2021/03/21 01:03:03;;;;;;;7.20;6.50;;;11.20;66.80;;;;;;4971334;28;20458;-63
2021/03/21 01:05:36;;;;;;;6.75;6.15;;;11.20;66.80;;;;;;4987135;28;20101;-62
2021/03/21 01:08:05;;;;;;;7.15;6.45;;;11.20;66.80;;;;;;4987534;28;20030;-62
2021/03/21 01:10:34;;;;;;;6.30;5.45;;;11.20;66.80;;;;;;4986038;28;20121;-62
2021/03/21 01:13:00;;;;;;;6.97;6.28;;;11.20;66.80;;;;;;4987119;28;20054;-62
2021/03/21 01:15:28;;;;;;;7.18;6.28;;;11.30;67.00;;;;;;4987406;28;20539;-63
2021/03/21 01:17:55;;;;;;;6.20;5.60;;;11.20;66.80;;;;;;4987306;28;20519;-63
2021/03/21 01:20:24;;;;;;;7.22;6.53;;;11.20;66.80;;;;;;4985903;28;20081;-62
2021/03/21 01:22:51;;;;;;;7.32;6.63;;;11.30;67.00;;;;;;4987478;28;20417;-62
2021/03/21 01:25:22;;;;;;;6.03;5.53;;;11.20;66.70;;;;;;4986127;28;20041;-62
2021/03/21 01:27:48;;;;;;;7.22;6.50;;;11.20;66.70;;;;;;4986358;28;20353;-62
2021/03/21 01:30:15;;;;;;;6.78;6.18;;;11.30;66.90;;;;;;4986853;28;20117;-62
2021/03/21 01:32:41;;;;;;;6.55;5.85;;;11.30;66.90;;;;;;4987126;28;20032;-61
2021/03/21 01:35:08;;;;;;;6.53;5.93;;;11.30;66.90;;;;;;4987225;28;20039;-63
2021/03/21 01:37:34;;;;;;;7.00;5.70;;;11.30;66.90;;;;;;4987239;28;20054;-62
2021/03/21 01:40:00;;;;;;;6.32;5.20;;;11.30;66.90;;;;;;4986785;28;20038;-61
2021/03/21 01:42:35;;;;;;;6.55;5.95;;;11.30;66.90;;;;;;4987132;28;20492;-62
2021/03/21 01:45:23;;;;;;;5.72;5.22;;;11.30;66.90;;;;;;4986402;28;20445;-61
2021/03/21 01:47:49;;;;;;;7.57;5.20;;;11.30;66.90;;;;;;4987081;28;20050;-62
2021/03/21 01:50:30;;;;;;;5.55;4.85;;;11.30;66.80;;;;;;4986603;28;20077;-61
2021/03/21 01:52:56;;;;;;;7.15;5.05;;;11.30;66.80;;;;;;4986283;28;20038;-62
2021/03/21 01:55:23;;;;;;;6.32;5.53;;;11.30;66.70;;;;;;4986840;28;20482;-62
2021/03/21 01:57:51;;;;;;;6.60;5.72;;;11.30;66.70;;;;;;4986748;28;20501;-62
2021/03/21 02:00:19;;;;;;;5.45;4.95;;;11.30;66.70;;;;;;4986095;28;20042;-62
2021/03/21 02:02:45;;;;;;;6.20;5.70;;;11.30;66.70;;;;;;4986416;28;20113;-62
2021/03/21 02:05:11;;;;;;;8.65;5.40;;;11.30;66.70;;;;;;4987201;28;20038;-62
2021/03/21 02:07:49;;;;;;;6.10;5.13;;;11.30;66.70;;;;;;4987161;28;20031;-62
2021/03/21 02:10:37;;;;;;;5.30;4.82;;;11.30;66.70;;;;;;4986933;28;20057;-62
2021/03/21 02:13:45;;;;;;;4.80;4.40;;;11.30;67.30;;;;;;4986341;28;20145;-62
2021/03/21 02:16:19;;;;;;;5.78;4.90;;;11.30;66.70;;;;;;4945124;29;20495;-62
2021/03/21 02:18:58;;;;;;;5.90;4.88;;;11.30;66.60;;;;;;4945187;28;20115;-62
2021/03/21 02:21:43;;;;;;;5.30;4.53;;;11.30;66.60;;;;;;4970450;28;20532;-63
2021/03/21 02:24:42;;;;;;;5.10;4.70;;;11.30;66.60;;;;;;4986378;28;20101;-62
2021/03/21 02:27:14;;;;;;;4.55;4.15;;;11.30;66.60;;;;;;4986484;28;20477;-62
2021/03/21 02:29:57;;;;;;;5.20;4.47;;;11.30;66.60;;;;;;4985941;28;20365;-62
2021/03/21 02:32:47;;;;;;;4.93;4.43;;;11.30;66.60;;;;;;5023403;23;20050;-77
2021/03/21 02:35:39;;;;;;;5.15;4.53;;;11.20;66.40;;;;;;5011544;28;20026;-72
2021/03/21 02:38:22;;;;;;;5.78;4.95;;;11.20;66.40;;;;;;4987846;28;20338;-79
2021/03/21 02:41:05;;;;;;;4.32;3.92;;;11.20;66.40;;;;;;4973866;28;20092;-77
2021/03/21 02:44:08;;;;;;;4.97;4.40;;;11.20;66.40;;;;;;4990972;28;20030;-79
2021/03/21 02:46:57;;;;;;;6.75;4.53;;;11.20;66.40;;;;;;5023828;22;20045;-86
2021/03/21 02:49:49;;;;;;;4.72;4.30;;;11.20;66.40;;;;;;5015789;28;20112;-86
2021/03/21 02:52:24;;;;;;;4.78;4.32;;;11.20;66.40;;;;;;5032541;28;20048;-84
2021/03/21 02:54:59;;;;;;;5.30;4.68;;;11.20;66.40;;;;;;5034690;28;20029;-87
2021/03/21 02:57:31;;;;;;;4.75;4.22;;;11.20;66.40;;;;;;4998190;28;20115;-86
2021/03/21 02:59:59;;;;;;;5.35;4.53;;;11.20;66.40;;;;;;5014523;28;20477;-83
2021/03/21 03:02:48;;;;;;;5.00;4.50;;;11.20;66.40;;;;;;5015860;28;20040;-85
2021/03/21 03:05:29;;;;;;;3.97;3.67;;;11.20;66.40;;;;;;4994327;28;20034;-87
2021/03/21 03:08:16;;;;;;;5.07;4.57;;;11.20;66.30;;;;;;4978926;28;20038;-89
2021/03/21 03:10:54;;;;;;;5.47;4.57;;;11.20;66.30;;;;;;4994972;28;20046;-87
2021/03/21 03:13:24;;;;;;;4.32;3.92;;;11.20;66.40;;;;;;4996307;28;20113;-89
2021/03/21 03:15:54;;;;;;;4.18;3.75;;;11.20;66.40;;;;;;4994894;28;20030;-89
2021/03/21 03:18:26;;;;;;;4.97;4.47;;;11.10;66.20;;;;;;4994572;28;20034;-85
2021/03/21 03:21:00;;;;;;;3.90;3.60;;;11.10;66.20;;;;;;4993935;28;20034;-84
2021/03/21 03:23:54;;;;;;;4.30;3.90;;;11.10;66.20;;;;;;4995527;28;20177;-82
2021/03/21 03:26:37;;;;;;;5.35;4.50;;;11.10;66.20;;;;;;4994290;28;20053;-83
2021/03/21 03:29:32;;;;;;;4.75;4.20;;;11.10;66.20;;;;;;4994048;28;20532;-83
2021/03/21 03:32:01;;;;;;;5.20;4.18;;;11.10;66.20;;;;;;4994838;28;20026;-85
2021/03/21 03:34:30;;;;;;;4.50;4.10;;;11.10;66.20;;;;;;5011249;28;20393;-89
2021/03/21 03:36:56;;;;;;;4.50;3.95;;;11.10;66.20;;;;;;5004838;28;20030;-86
2021/03/21 03:39:23;;;;;;;5.38;4.03;;;11.10;66.20;;;;;;5026936;28;20056;-85
2021/03/21 03:42:05;;;;;;;4.63;3.88;;;11.10;66.20;;;;;;5009101;28;20027;-87
2021/03/21 03:44:45;;;;;;;3.47;3.17;;;11.10;66.20;;;;;;5010236;28;20042;-84
2021/03/21 03:47:29;;;;;;;4.18;3.47;;;11.10;66.20;;;;;;5008125;28;20054;-82
2021/03/21 03:50:03;;;;;;;4.80;4.25;;;11.10;66.20;;;;;;5012997;28;20040;-84
2021/03/21 03:52:47;;;;;;;4.38;3.53;;;11.10;66.20;;;;;;5011562;28;20049;-84
2021/03/21 03:55:56;;;;;;;4.32;3.67;;;11.10;66.10;;;;;;5014596;28;20036;-83
2021/03/21 03:58:27;;;;;;;3.95;3.65;;;11.10;66.10;;;;;;5021704;28;20037;-84
2021/03/21 04:01:02;;;;;;;3.55;3.22;;;11.10;66.10;;;;;;5014205;28;20026;-83
2021/03/21 04:03:43;;;;;;;4.68;3.67;;;11.10;66.10;;;;;;5013992;28;20058;-86
2021/03/21 04:06:49;;;;;;;3.85;3.38;;;11.00;66.00;;;;;;5012608;28;20082;-84
2021/03/21 04:09:42;;;;;;;4.40;3.38;;;11.00;66.00;;;;;;5012292;28;20092;-86
2021/03/21 04:12:13;;;;;;;3.90;3.42;;;11.00;66.00;;;;;;5011371;28;20026;-83
2021/03/21 04:14:42;;;;;;;3.83;3.17;;;11.00;66.00;;;;;;5013703;28;20559;-84
2021/03/21 04:17:39;;;;;;;4.90;3.45;;;11.00;66.00;;;;;;5027513;28;20061;-83
2021/03/21 04:20:19;;;;;;;4.00;3.35;;;11.00;66.10;;;;;;4997485;28;20026;-86
2021/03/21 04:23:09;;;;;;;3.85;3.40;;;10.90;65.90;;;;;;5012034;28;20064;-89
2021/03/21 04:25:45;;;;;;;4.07;3.42;;;10.90;65.80;;;;;;4981516;28;20102;-84
2021/03/21 04:28:20;;;;;;;3.38;3.08;;;10.90;65.90;;;;;;5026333;28;20065;-82
2021/03/21 04:30:50;;;;;;;3.38;3.08;;;10.90;65.90;;;;;;5011735;28;20027;-82
2021/03/21 04:33:22;;;;;;;4.18;2.97;;;10.90;65.90;;;;;;4994044;28;20170;-85
2021/03/21 04:35:53;;;;;;;3.42;3.13;;;10.80;65.80;;;;;;5008815;28;20030;-83
2021/03/21 04:38:41;;;;;;;3.53;3.03;;;10.80;65.80;;;;;;5007870;28;20027;-82
2021/03/21 04:41:11;;;;;;;3.53;3.22;;;10.80;65.80;;;;;;4994981;28;20561;-81
2021/03/21 04:43:43;;;;;;;4.03;3.63;;;10.80;65.90;;;;;;5012563;28;20034;-85
2021/03/21 04:46:15;;;;;;;3.28;2.97;;;10.70;65.80;;;;;;5009421;28;20065;-88
2021/03/21 04:48:41;;;;;;;4.38;3.47;;;10.70;65.80;;;;;;5012006;28;20061;-85
2021/03/21 04:51:18;;;;;;;3.85;3.08;;;10.70;65.80;;;;;;5027538;28;20050;-82
2021/03/21 04:53:58;;;;;;;3.63;2.88;;;10.70;65.90;;;;;;5013467;28;20192;-87
2021/03/21 04:56:56;;;;;;;3.80;3.17;;;10.60;65.70;;;;;;5012960;28;20041;-83
2021/03/21 04:59:27;;;;;;;3.00;2.70;;;10.60;65.70;;;;;;5006338;28;20034;-84
2021/03/21 05:02:00;;;;;;;4.25;2.92;;;10.60;65.70;;;;;;5012509;28;20045;-83
2021/03/21 05:04:32;;;;;;;2.90;2.70;;;10.60;65.80;;;;;;5029374;28;20042;-81
2021/03/21 05:07:20;;;;;;;3.90;2.63;;;10.60;65.80;;;;;;5012741;28;20058;-85
2021/03/21 05:09:49;;;;;;;3.67;2.92;;;10.50;65.70;;;;;;5013054;28;20034;-82
2021/03/21 05:12:22;;;;;;;4.65;3.60;;;10.50;65.70;;;;;;5012515;28;20086;-83
2021/03/21 05:14:50;;;;;;;2.88;2.55;;;10.50;65.80;;;;;;5013258;28;20038;-83
2021/03/21 05:17:30;;;;;;;3.97;3.05;;;10.50;65.80;;;;;;5013974;28;20014;-84
2021/03/21 05:20:26;;;;;;;3.13;2.83;;;10.50;65.80;;;;;;5014431;28;20038;-87
2021/03/21 05:23:17;;;;;;;6.78;3.20;;;10.50;65.90;;;;;;5012939;28;20029;-87
2021/03/21 05:26:01;;;;;;;5.32;3.45;;;10.50;65.80;;;;;;5028884;28;20039;-81
2021/03/21 05:28:59;;;;;;;4.05;3.00;;;10.40;65.60;;;;;;5013947;28;20034;-81
2021/03/21 05:31:26;;;;;;;4.53;2.97;;;10.40;65.70;;;;;;5013119;28;20062;-86
2021/03/21 05:33:53;;;;;;;4.85;3.30;;;10.40;65.70;;;;;;4997290;28;20030;-83
2021/03/21 05:36:41;;;;;;;3.13;2.80;;;10.40;65.70;;;;;;5006972;28;20030;-87
2021/03/21 05:39:29;;;;;;;3.97;2.72;;;10.40;65.70;;;;;;5010362;28;20054;-80
2021/03/21 05:42:24;;;;;;;4.82;2.90;;;10.40;65.80;;;;;;5003073;28;20026;-84
2021/03/21 05:44:50;;;;;;;3.85;2.95;;;10.40;65.80;;;;;;4959336;28;20503;-86
2021/03/21 05:47:49;;;;;;;4.50;3.10;;;10.40;65.70;;;;;;4994159;28;20097;-91
2021/03/21 05:50:43;;;;;;;3.40;3.00;;;10.40;65.80;;;;;;5009844;28;20401;-90
2021/03/21 05:53:27;;;;;;;3.90;3.03;;;10.40;65.80;;;;;;5008542;28;20029;-86
2021/03/21 05:56:22;;;;;;;2.95;2.40;;;10.40;65.80;;;;;;4991994;28;20026;-85
2021/03/21 05:59:10;;;;;;;3.83;3.20;;;10.40;65.80;;;;;;5008270;28;20034;-88
2021/03/21 06:02:24;;;;;;;4.03;3.22;;;10.40;65.80;;;;;;5009032;28;20036;-87
2021/03/21 06:05:33;;;;;;;2.97;2.67;;;10.40;65.80;;;;;;4987143;28;20103;-83
2021/03/21 06:08:35;;;;;;;5.05;3.05;;;10.40;65.80;;;;;;4990070;28;20045;-87
2021/03/21 06:11:20;;;;;;;4.45;3.35;;;10.40;65.90;;;;;;5032914;28;20033;-86
2021/03/21 06:14:14;;;;;;;3.33;3.03;;;10.40;65.80;;;;;;5020735;28;20480;-84
2021/03/21 06:17:27;;;;;;;2.78;2.58;;;10.40;65.90;;;;;;5026076;28;20029;-82
2021/03/21 06:19:56;;;;;;;4.07;3.00;;;10.40;65.90;;;;;;5011161;28;20037;-86
2021/03/21 06:22:41;;;;;;;3.47;2.88;;;10.40;65.80;;;;;;5025892;28;20033;-88
2021/03/21 06:25:34;;;;;;;3.50;2.95;;;10.40;65.90;;;;;;5026397;28;20048;-87
2021/03/21 06:28:12;;;;;;;3.23;2.93;;;10.40;65.90;;;;;;5026912;28;20029;-82
2021/03/21 06:31:06;;;;;;;5.25;3.47;;;10.40;65.90;;;;;;5026918;28;20034;-86
2021/03/21 06:33:58;;;;;;;5.20;3.67;;;10.40;65.90;;;;;;5027874;28;20026;-92
2021/03/21 06:36:43;;;;;;;4.70;3.22;;;10.40;65.90;;;;;;5008541;28;20088;-90
2021/03/21 06:39:47;;;;;;;3.10;2.88;;;10.40;65.90;;;;;;5028788;28;20073;-90
2021/03/21 06:42:45;;;;;;;3.65;3.13;;;10.40;65.90;;;;;;5027336;28;20408;-93
2021/03/21 06:45:29;;;;;;;4.40;2.88;;;10.40;65.90;;;;;;5028175;28;20042;-82
2021/03/21 06:48:18;;;;;;;3.20;2.70;;;10.40;65.90;;;;;;5027060;28;20080;-86
2021/03/21 06:50:49;;;;;;;3.83;3.20;;;10.40;65.90;;;;;;5026355;28;20381;-91
2021/03/21 06:53:53;;;;;;;3.95;3.22;;;10.40;66.00;;;;;;5027429;28;20097;-91
2021/03/21 06:56:31;;;;;;;4.68;3.10;;;10.40;66.50;;;;;;5027183;28;20079;-83
2021/03/21 06:59:34;;;;;;;2.83;2.60;;;10.40;66.00;;;;;;5026984;28;20053;-88
2021/03/21 07:02:34;;;;;;;5.32;3.58;;;10.50;66.10;;;;;;5008929;28;20040;-86
2021/03/21 07:05:09;;;;;;;4.93;3.78;;;10.50;66.10;;;;;;5026146;28;20037;-88
2021/03/21 07:08:12;;;;;;;5.60;3.25;;;10.50;66.00;;;;;;5025451;28;20029;-87
2021/03/21 07:11:15;;;;;;;3.85;3.33;;;10.50;66.00;;;;;;5024743;28;20033;-89
2021/03/21 07:13:56;;;;;;;5.55;3.30;;;10.60;66.20;;;;;;5010570;28;20065;-92
2021/03/21 07:16:37;;;;;;;4.15;3.50;;;10.60;66.10;;;;;;5004859;28;20022;-88
2021/03/21 07:19:15;;;;;;;5.10;3.78;;;10.60;66.20;;;;;;5019424;28;20064;-84
2021/03/21 07:22:05;;;;;;;5.22;4.22;;;10.70;66.40;;;;;;5024963;28;20361;-84
2021/03/21 07:24:57;;;;;;;5.20;3.88;;;10.70;66.70;;;;;;5029042;28;20577;-84
2021/03/21 07:27:35;;;;;;;5.97;4.40;;;10.80;67.10;;;;;;5025551;28;20404;-85
2021/03/21 07:30:11;;;;;;;8.40;4.13;;;10.90;67.90;;;;;;5025296;28;20037;-87
2021/03/21 07:32:37;;;;;;;9.43;4.93;;;11.00;68.40;;;;;;4982328;28;20037;-88
2021/03/21 07:35:15;;;;;;;6.10;4.82;;;11.20;68.60;;;;;;5008314;28;20030;-85
2021/03/21 07:37:47;;;;;;;6.95;4.88;;;11.30;68.80;;;;;;5010334;28;20022;-86
2021/03/21 07:40:19;;;;;;;6.78;4.97;;;11.40;68.90;;;;;;5028472;28;20043;-82
2021/03/21 07:43:12;;;;;;;10.50;4.60;;;11.50;69.10;;;;;;5028108;28;20293;-84
2021/03/21 07:45:45;;;;;;;5.28;4.43;;;11.60;69.50;;;;;;5027334;28;20504;-83
2021/03/21 07:48:24;;;;;;;5.57;4.20;;;11.70;69.50;;;;;;5022101;28;20536;-83
2021/03/21 07:51:12;;;;;;;8.93;5.68;;;11.70;69.50;;;;;;5008711;28;20492;-82
2021/03/21 07:53:50;;;;;;;10.77;5.22;;;11.70;69.60;;;;;;5008147;28;20037;-82
2021/03/21 07:56:25;;;;;;;6.97;5.70;;;11.80;69.60;;;;;;5009752;28;20034;-88
2021/03/21 07:59:14;;;;;;;7.47;5.32;;;11.90;69.80;;;;;;5019592;28;20037;-92
2021/03/21 08:01:40;;;;;;;7.13;5.18;;;12.00;70.00;;;;;;5008917;28;20508;-85
2021/03/21 08:04:26;;;;;;;10.23;5.90;;;12.10;70.30;;;;;;5005020;28;20180;-86
2021/03/21 08:07:25;;;;;;;6.40;5.05;;;12.20;71.50;;;;;;5008152;28;20029;-86
2021/03/21 08:09:51;;;;;;;6.13;4.90;;;12.40;72.00;;;;;;5006242;28;20439;-88
2021/03/21 08:12:21;;;;;;;7.88;5.45;;;12.60;72.00;;;;;;5009264;28;20033;-87
2021/03/21 08:14:50;;;;;;;10.70;4.18;;;12.90;72.70;;;;;;5010114;28;20072;-86
2021/03/21 08:17:41;;;;;;;10.35;4.50;;;13.10;72.90;;;;;;4989670;28;20098;-86
2021/03/21 08:20:18;;;;;;;7.03;4.07;;;13.30;73.40;;;;;;4990778;28;20030;-84
2021/03/21 08:22:45;;;;;;;9.23;4.78;;;13.50;73.50;;;;;;5004558;28;20048;-88
2021/03/21 08:25:27;;;;;;;7.07;4.60;;;13.60;73.20;;;;;;5028813;28;20052;-85
2021/03/21 08:27:54;;;;;;;10.30;5.03;;;13.70;73.30;;;;;;5017024;28;20029;-85
2021/03/21 08:30:23;;;;;;;6.30;5.07;;;13.80;73.20;;;;;;5018031;28;20036;-85
2021/03/21 08:33:02;;;;;;;9.20;5.65;;;13.90;73.30;;;;;;5022758;28;20065;-86
2021/03/21 08:35:37;;;;;;;7.22;6.03;;;13.90;73.30;;;;;;5008464;28;20048;-85
2021/03/21 08:38:20;;;;;;;8.60;5.82;;;14.00;73.30;;;;;;5012292;28;20029;-84
2021/03/21 08:40:47;;;;;;;5.85;5.20;;;14.10;73.30;;;;;;5025771;28;20065;-86
2021/03/21 08:43:16;;;;;;;7.15;5.57;;;14.10;73.00;;;;;;5025011;28;20030;-85
2021/03/21 08:45:47;;;;;;;8.15;5.30;;;14.20;73.10;;;;;;5025608;28;20033;-83
2021/03/21 08:48:13;;;;;;;10.23;6.10;;;14.20;72.90;;;;;;5019725;28;20389;-84
2021/03/21 08:50:42;;;;;;;8.02;5.95;;;14.20;72.70;;;;;;4989648;28;20041;-83
2021/03/21 08:53:30;;;;;;;6.80;6.05;;;14.20;72.60;;;;;;5011902;28;20030;-85
2021/03/21 08:56:38;;;;;;;8.80;5.95;;;14.30;72.60;;;;;;4993108;28;20034;-85
2021/03/21 08:59:32;;;;;;;6.75;5.25;;;14.40;72.60;;;;;;4959351;28;20031;-90
2021/03/21 09:02:07;;;;;;;9.37;6.07;;;14.40;72.40;;;;;;4949809;28;20031;-85
2021/03/21 09:04:37;;;;;;;7.88;6.32;;;14.40;72.60;;;;;;5012389;28;20060;-86
2021/03/21 09:07:33;;;;;;;24.73;14.00;;;14.60;73.00;;;;;;5027583;28;20140;-84
2021/03/21 09:10:25;;;;;;;17.17;11.10;;;14.70;73.30;;;;;;4993128;28;20115;-85
2021/03/21 09:13:12;;;;;;;15.23;11.82;;;14.80;73.30;;;;;;5007206;28;20032;-84
2021/03/21 09:15:41;;;;;;;16.67;11.63;;;14.90;73.20;;;;;;5027518;28;20034;-83
2021/03/21 09:18:17;;;;;;;17.35;11.52;;;15.00;73.10;;;;;;5017534;28;20025;-84
2021/03/21 09:20:52;;;;;;;16.35;11.43;;;15.10;73.00;;;;;;5027220;28;20021;-84
2021/03/21 09:23:24;;;;;;;20.92;11.05;;;15.20;73.00;;;;;;5022409;28;20105;-85
2021/03/21 09:25:52;;;;;;;15.48;10.77;;;15.20;72.80;;;;;;5006939;28;20045;-85
2021/03/21 09:28:20;;;;;;;17.75;11.35;;;15.30;72.80;;;;;;5007642;28;20026;-87
2021/03/21 09:30:47;;;;;;;18.83;10.85;;;15.40;72.80;;;;;;5006132;28;20191;-85
2021/03/21 09:33:45;;;;;;;16.02;10.60;;;15.50;72.80;;;;;;5017989;28;20144;-86
2021/03/21 09:36:15;;;;;;;14.80;9.88;;;15.60;72.80;;;;;;5004599;28;20452;-85
2021/03/21 09:38:49;;;;;;;14.30;10.07;;;15.80;72.80;;;;;;5006781;28;20593;-87
2021/03/21 09:41:16;;;;;;;16.25;10.32;;;15.90;72.80;;;;;;5006264;28;20396;-86
2021/03/21 09:43:47;;;;;;;13.60;10.02;;;16.00;72.80;;;;;;5014235;28;20137;-84
2021/03/21 09:46:16;;;;;;;14.43;10.10;;;16.00;72.50;;;;;;4990365;28;20092;-88
2021/03/21 09:48:48;;;;;;;10.70;9.52;;;16.10;72.40;;;;;;5006792;28;20042;-89
2021/03/21 09:51:15;;;;;;;14.90;9.82;;;16.20;72.40;;;;;;5007922;28;20029;-84
2021/03/21 09:54:10;;;;;;;12.30;9.50;;;16.30;72.40;;;;;;5022385;28;20049;-89
2021/03/21 09:57:00;;;;;;;12.25;9.73;;;16.40;72.40;;;;;;5011930;28;20041;-83
2021/03/21 09:59:38;;;;;;;12.00;9.32;;;16.50;72.30;;;;;;5030950;28;20029;-95
2021/03/21 10:02:13;;;;;;;11.43;9.00;;;16.60;72.30;;;;;;5028433;28;20722;-89
2021/03/21 10:04:47;;;;;;;11.70;8.80;;;16.70;72.40;;;;;;5015691;28;20034;-89
2021/03/21 10:07:20;;;;;;;14.75;8.65;;;16.80;72.90;;;;;;5006669;28;20022;-86
2021/03/21 10:09:49;;;;;;;11.73;8.93;;;16.90;72.30;;;;;;5024888;28;20481;-84
2021/03/21 10:12:16;;;;;;;11.40;8.68;;;17.10;72.50;;;;;;5022859;28;20488;-82
2021/03/21 10:14:48;;;;;;;10.55;8.55;;;17.20;72.50;;;;;;5005912;28;20034;-87
2021/03/21 10:17:17;;;;;;;10.68;9.00;;;17.20;72.30;;;;;;5008070;28;20385;-86
2021/03/21 10:19:51;;;;;;;11.13;8.85;;;17.30;72.30;;;;;;5023122;28;20384;-88
2021/03/21 10:22:17;;;;;;;11.88;8.35;;;17.40;72.30;;;;;;5026124;28;20025;-86
2021/03/21 10:24:49;;;;;;;13.07;8.55;;;17.50;72.30;;;;;;5029519;28;20041;-86
2021/03/21 10:27:15;;;;;;;20.65;11.95;;;17.50;72.10;;;;;;5031512;28;20484;-84
2021/03/21 10:29:44;;;;;;;30.23;17.60;;;17.60;72.10;;;;;;5036168;28;20439;-89
2021/03/21 10:32:29;;;;;;;35.55;18.65;;;17.60;71.90;;;;;;5030614;28;20061;-88
2021/03/21 10:34:56;;;;;;;31.40;17.17;;;17.80;72.00;;;;;;5024565;28;20120;-85
2021/03/21 10:37:40;;;;;;;34.92;18.20;;;17.80;71.70;;;;;;5010342;28;20602;-86
2021/03/21 10:40:24;;;;;;;31.77;18.85;;;18.00;71.60;;;;;;4991356;28;20097;-86
2021/03/21 10:43:02;;;;;;;32.28;18.88;;;18.00;71.50;;;;;;5002471;28;20087;-89
2021/03/21 10:45:47;;;;;;;25.02;17.50;;;18.00;71.30;;;;;;5026149;28;20038;-85
2021/03/21 10:48:19;;;;;;;28.83;17.27;;;18.10;71.30;;;;;;5022099;28;20048;-82
2021/03/21 10:50:45;;;;;;;34.40;16.58;;;18.10;71.00;;;;;;5006174;28;20040;-84
2021/03/21 10:53:22;;;;;;;26.33;16.55;;;18.10;71.00;;;;;;5017236;28;20101;-85
2021/03/21 10:56:14;;;;;;;24.00;15.63;;;18.20;71.10;;;;;;5008367;28;20038;-84
2021/03/21 10:58:42;;;;;;;21.83;14.43;;;18.20;71.00;;;;;;5027363;28;20045;-89
2021/03/21 11:01:18;;;;;;;19.40;15.70;;;18.30;71.20;;;;;;5013589;28;20073;-85
2021/03/21 11:04:13;;;;;;;20.02;14.00;;;18.40;71.10;;;;;;5020730;28;20056;-88
2021/03/21 11:07:20;;;;;;;20.67;14.45;;;18.50;71.00;;;;;;5009208;28;20489;-86
2021/03/21 11:09:54;;;;;;;17.58;13.02;;;18.60;71.00;;;;;;5010548;28;20026;-88
2021/03/21 11:12:29;;;;;;;;;;;18.70;71.10;;;;;;5029104;28;20516;-85
2021/03/21 11:14:55;;;;;;;18.80;12.15;;;18.70;71.10;;;;;;5028791;28;20335;-89
2021/03/21 11:17:28;;;;;;;20.42;13.02;;;18.80;71.10;;;;;;5030832;28;20052;-91
2021/03/21 11:19:57;;;;;;;20.90;12.05;;;18.90;71.10;;;;;;5032417;28;20040;-92
2021/03/21 11:22:32;;;;;;;19.00;12.68;;;18.90;70.90;;;;;;5031075;28;20040;-86
2021/03/21 11:25:00;;;;;;;15.13;11.40;;;19.10;71.00;;;;;;4993653;28;20038;-84
2021/03/21 11:27:31;;;;;;;16.85;11.85;;;19.10;70.90;;;;;;5010646;28;20030;-86
2021/03/21 11:30:28;;;;;;;18.10;10.68;;;19.20;70.80;;;;;;5031932;28;20072;-93
2021/03/21 11:33:15;;;;;;;19.15;10.23;;;19.30;70.90;;;;;;4994887;28;20046;-84
2021/03/21 11:35:41;;;;;;;17.80;10.73;;;19.40;70.80;;;;;;4992630;28;20034;-86
2021/03/21 11:38:30;;;;;;;13.38;9.55;;;19.50;70.70;;;;;;4999711;28;20026;-87
2021/03/21 11:40:59;;;;;;;14.10;10.13;;;19.60;70.50;;;;;;5032017;28;20029;-87
2021/03/21 11:43:30;;;;;;;15.13;9.77;;;19.70;70.60;;;;;;5031357;28;20139;-86
2021/03/21 11:46:15;;;;;;;11.32;9.07;;;19.70;70.30;;;;;;5033357;28;20091;-86
2021/03/21 11:48:42;;;;;;;17.58;10.05;;;19.80;70.20;;;;;;5029754;28;20484;-82
2021/03/21 11:51:13;;;;;;;12.90;8.40;;;19.90;70.30;;;;;;5029781;28;20505;-82
2021/03/21 11:53:39;;;;;;;11.02;8.10;;;19.90;69.90;;;;;;5030223;28;20037;-89
2021/03/21 11:56:33;;;;;;;12.65;8.52;;;19.90;69.90;;;;;;5030535;28;20084;-84
2021/03/21 11:59:15;;;;;;;12.23;7.85;;;20.00;69.90;;;;;;5027406;28;20029;-83
2021/03/21 12:01:57;;;;;;;12.68;8.68;;;20.00;69.80;;;;;;5029109;28;20025;-84
2021/03/21 12:04:39;;;;;;;12.27;8.25;;;20.10;69.80;;;;;;5029894;28;20041;-86
2021/03/21 12:07:05;;;;;;;11.65;8.15;;;20.10;69.60;;;;;;5031570;28;20040;-91
2021/03/21 12:09:48;;;;;;;9.73;7.55;;;20.10;69.60;;;;;;5031746;28;20420;-86
2021/03/21 12:12:41;;;;;;;9.88;7.55;;;20.10;69.30;;;;;;5028111;28;20030;-83
2021/03/21 12:15:13;;;;;;;14.52;7.57;;;20.10;69.20;;;;;;5029453;28;20628;-85
2021/03/21 12:17:41;;;;;;;11.75;7.95;;;20.00;69.10;;;;;;5028461;28;20320;-88
2021/03/21 12:20:36;;;;;;;8.98;6.38;;;19.90;68.90;;;;;;5029730;28;20036;-88
2021/03/21 12:23:02;;;;;;;10.68;8.80;;;19.90;68.00;;;;;;5025551;28;20512;-90
2021/03/21 12:25:38;;;;;;;11.73;8.75;;;19.80;68.10;;;;;;5008201;28;20084;-87
2021/03/21 12:28:19;;;;;;;13.43;7.63;;;19.60;67.00;;;;;;5012423;28;20045;-83
2021/03/21 12:30:55;;;;;;;10.40;7.72;;;19.50;66.40;;;;;;5028521;28;20026;-84
2021/03/21 12:33:27;;;;;;;12.82;9.48;;;19.40;66.40;;;;;;5026562;28;20242;-84
2021/03/21 12:36:10;;;;;;;12.82;9.65;;;19.30;66.40;;;;;;5036954;28;20061;-87
2021/03/21 12:38:46;;;;;;;8.82;5.45;;;19.30;66.60;;;;;;5046406;28;20120;-88
2021/03/21 12:41:36;;;;;;;7.97;4.97;;;19.20;65.40;;;;;;5031111;28;20048;-86
2021/03/21 12:44:22;;;;;;;6.82;4.63;;;19.10;63.80;;;;;;5010866;28;20033;-83
2021/03/21 12:47:02;;;;;;;7.65;4.68;;;18.80;62.90;;;;;;4992840;28;20084;-81
2021/03/21 12:49:43;;;;;;;8.82;5.32;;;18.50;62.20;;;;;;5024300;28;20511;-83
2021/03/21 12:52:21;;;;;;;10.38;4.95;;;18.30;61.80;;;;;;5016611;28;20061;-83
2021/03/21 12:54:47;;;;;;;6.68;5.28;;;18.10;61.20;;;;;;5028361;28;20041;-83
2021/03/21 12:57:14;;;;;;;8.95;5.63;;;17.90;61.10;;;;;;5029019;28;20392;-87
2021/03/21 12:59:47;;;;;;;8.52;5.55;;;17.80;60.60;;;;;;5028504;28;20025;-85
2021/03/21 13:02:26;;;;;;;8.52;5.10;;;17.70;60.20;;;;;;5026344;28;20061;-84
2021/03/21 13:04:54;;;;;;;10.88;5.53;;;17.60;59.60;;;;;;5026561;28;20046;-82
2021/03/21 13:07:23;;;;;;;8.25;6.03;;;17.50;59.60;;;;;;5027634;28;20485;-84
2021/03/21 13:09:52;;;;;;;8.20;5.68;;;17.40;59.20;;;;;;5026428;28;20033;-83
2021/03/21 13:12:19;;;;;;;10.55;6.50;;;17.30;58.80;;;;;;5026373;28;20030;-87
2021/03/21 13:14:46;;;;;;;11.20;7.22;;;17.20;58.50;;;;;;5026548;28;20059;-82
2021/03/21 13:17:12;;;;;;;8.85;6.38;;;17.20;58.50;;;;;;5012122;28;20363;-83
2021/03/21 13:19:39;;;;;;;8.63;5.55;;;17.20;58.40;;;;;;5008672;28;20061;-82
2021/03/21 13:22:06;;;;;;;9.07;5.22;;;17.10;57.80;;;;;;5006572;28;20028;-85
2021/03/21 13:24:33;;;;;;;8.68;5.35;;;17.10;57.60;;;;;;5002740;28;20038;-83
2021/03/21 13:26:59;;;;;;;8.48;5.13;;;17.10;57.40;;;;;;5007578;28;20392;-83
2021/03/21 13:29:25;;;;;;;7.68;4.10;;;17.10;57.40;;;;;;5020860;28;20488;-83
2021/03/21 13:31:51;;;;;;;7.03;4.70;;;17.00;57.00;;;;;;5025862;28;20041;-83
2021/03/21 13:34:17;;;;;;;5.35;3.85;;;17.00;56.70;;;;;;5012612;28;20387;-83
2021/03/21 13:36:43;;;;;;;4.82;3.83;;;17.00;56.50;;;;;;5003283;28;20484;-83